Time;durP1;ratioP1;P1;durP2;ratioP2;P2;SDS_P1;SDS_P2;PMS_P1;PMS_P2;Temp;Humidity;BMP_temperature;BMP_pressure;BME280_temperature;BME280_humidity;BME280_pressure;Samples;Min_cycle;Max_cycle;Signal;HPM_P1;HPM_P2
2023/08/28 04:20:07;;;;;;;;;;;;;;;;;;;;;
2023/08/28 07:22:41;;;;;;;0.45;0.45;;;;;;;28.64;60.71;98638.84;5342729;26;19983;-94
2023/08/28 07:25:40;;;;;;;;;;;;;;;;;;;;;
2023/08/28 07:28:36;;;;;;;;;;;;;;;;;;;;;
2023/08/28 07:31:10;;;;;;;1.65;1.48;;;;;;;29.09;60.72;98641.28;5350693;26;20075;-94
2023/08/28 07:34:00;;;;;;;1.92;1.23;;;;;;;29.29;60.74;98644.94;5330813;26;20052;-94
2023/08/28 07:36:44;;;;;;;;;;;;;;;29.34;60.75;98643.38;5351571;26;20672;-94
2023/08/28 07:39:28;;;;;;;;;;;;;;;;;;;;;
2023/08/28 07:42:36;;;;;;;1.45;1.15;;;;;;;29.47;60.74;98648.00;5349423;26;35519;-94
2023/08/28 07:45:19;;;;;;;0.62;0.62;;;;;;;29.52;60.76;98658.97;5367064;26;20052;-95
2023/08/28 07:47:50;;;;;;;0.55;0.55;;;;;;;29.80;60.76;98658.06;5350844;26;20059;-93
2023/08/28 07:50:21;;;;;;;0.35;0.35;;;;;;;29.77;60.76;98661.16;5348919;26;20122;-94
2023/08/28 07:52:56;;;;;;;4.80;1.35;;;;;;;29.86;60.77;98659.97;5330623;26;20433;-94
2023/08/28 07:55:21;;;;;;;0.88;0.88;;;;;;;30.07;60.78;98659.91;5332241;26;20024;-93
2023/08/28 07:57:47;;;;;;;1.45;0.80;;;;;;;30.15;60.79;98657.03;5329816;26;20111;-94
2023/08/28 08:00:23;;;;;;;2.42;0.85;;;;;;;30.23;60.79;98658.72;5329541;26;20111;-93
2023/08/28 08:02:51;;;;;;;2.08;1.10;;;;;;;30.18;60.79;98661.19;5332423;26;20070;-94
2023/08/28 08:05:18;;;;;;;1.52;1.42;;;;;;;30.35;60.79;98650.91;5329642;26;20450;-94
2023/08/28 08:07:44;;;;;;;0.35;0.35;;;;;;;30.48;60.80;98645.56;5329760;26;20051;-94
2023/08/28 08:10:10;;;;;;;5.78;2.58;;;;;;;30.67;60.81;98650.19;5329979;26;20057;-93
2023/08/28 08:12:36;;;;;;;2.25;1.25;;;;;;;30.85;60.81;98652.28;5330073;26;20064;-93
2023/08/28 08:15:02;;;;;;;1.50;0.82;;;;;;;30.76;60.81;98648.12;5348098;26;20048;-94
2023/08/28 08:17:28;;;;;;;1.15;1.12;;;;;;;31.06;60.83;98637.81;5329712;26;20075;-92
2023/08/28 08:19:53;;;;;;;1.35;1.17;;;;;;;31.06;60.83;98637.81;5329613;26;20111;-92
2023/08/28 08:22:19;;;;;;;1.17;1.08;;;;;;;31.09;60.82;98623.94;5329437;26;20131;-93
2023/08/28 08:24:44;;;;;;;3.67;1.55;;;;;;;31.19;60.84;98618.16;5329473;26;20063;-92
2023/08/28 08:27:10;;;;;;;1.52;1.42;;;;;;;31.28;60.85;98611.56;5329743;26;20095;-93
2023/08/28 08:29:35;;;;;;;1.33;0.90;;;;;;;31.30;60.84;98610.31;5329360;26;20348;-93
2023/08/28 08:32:00;;;;;;;2.40;2.28;;;;;;;31.19;60.84;98600.19;5329225;26;20060;-93
2023/08/28 08:34:26;;;;;;;11.70;1.30;;;;;;;31.25;60.85;98596.66;5329372;26;20472;-92
2023/08/28 08:36:51;;;;;;;3.90;0.73;;;;;;;31.40;60.85;98599.09;5329712;26;20432;-92
2023/08/28 08:39:17;;;;;;;1.60;0.80;;;;;;;31.60;60.86;98602.56;5328692;26;26778;-92
2023/08/28 08:41:42;;;;;;;3.95;1.52;;;;;;;31.49;60.86;98597.84;5329514;26;20110;-93
2023/08/28 08:44:07;;;;;;;3.28;1.52;;;;;;;31.64;60.86;98592.22;5329536;26;20388;-92
2023/08/28 08:46:33;;;;;;;1.87;0.93;;;;;;;31.81;60.87;98601.50;5328909;26;23291;-92
2023/08/28 08:48:59;;;;;;;1.33;1.23;;;;;;;32.05;60.88;98599.94;5348229;26;20115;-92
2023/08/28 08:51:25;;;;;;;0.95;0.95;;;;;;;32.15;60.89;98604.84;5329664;26;20130;-92
2023/08/28 08:54:00;;;;;;;1.50;1.40;;;;;;;32.16;60.89;98599.25;5329665;26;20348;-91
2023/08/28 08:56:25;;;;;;;0.60;0.60;;;;;;;32.45;60.90;98600.56;5366415;26;20089;-92
2023/08/28 08:58:51;;;;;;;1.58;1.40;;;;;;;32.61;60.91;98600.03;5329373;26;20075;-92
2023/08/28 09:01:16;;;;;;;2.05;1.95;;;;;;;32.82;60.92;98606.94;5329572;26;20070;-93
2023/08/28 09:03:42;;;;;;;6.22;2.00;;;;;;;33.01;60.93;98594.34;5329523;26;20490;-92
2023/08/28 09:06:08;;;;;;;0.43;0.43;;;;;;;33.16;60.95;98602.94;5329445;26;20040;-92
2023/08/28 09:08:42;;;;;;;3.75;2.30;;;;;;;33.26;60.94;98602.41;5329410;26;20115;-92
2023/08/28 09:11:08;;;;;;;2.85;0.90;;;;;;;33.40;60.96;98598.56;5329627;26;20421;-93
2023/08/28 09:13:35;;;;;;;0.55;0.55;;;;;;;33.34;60.95;98604.00;5329760;26;20107;-93
2023/08/28 09:16:00;;;;;;;6.93;1.35;;;;;;;33.63;60.96;98599.78;5329362;26;20381;-93
2023/08/28 09:18:26;;;;;;;1.77;1.48;;;;;;;33.65;60.95;98601.19;5329197;26;20075;-93
2023/08/28 09:21:10;;;;;;;2.08;1.42;;;;;;;33.53;60.96;98590.31;5329354;26;20056;-93
2023/08/28 09:23:43;;;;;;;1.65;1.55;;;;;;;33.75;60.97;98589.84;5347787;26;20069;-93
2023/08/28 09:26:13;;;;;;;3.05;1.85;;;;;;;33.72;60.96;98596.53;5329412;26;20431;-94
2023/08/28 09:28:39;;;;;;;1.67;1.58;;;;;;;34.02;60.98;98582.25;5329732;26;20075;-94
2023/08/28 09:31:05;;;;;;;0.90;0.90;;;;;;;34.01;60.98;98586.00;5329069;26;20064;-94
2023/08/28 09:33:48;;;;;;;2.05;1.17;;;;;;;34.26;60.99;98573.19;5329308;26;20059;-94
2023/08/28 09:36:16;;;;;;;1.48;1.30;;;;;;;34.10;60.98;98561.19;5329185;26;20044;-93
2023/08/28 09:38:42;;;;;;;1.23;1.23;;;;;;;34.29;60.99;98558.41;5329597;26;20064;-95
2023/08/28 09:41:07;;;;;;;4.87;1.60;;;;;;;34.25;61.00;98560.75;5329117;26;20059;-93
2023/08/28 09:43:33;;;;;;;1.83;1.55;;;;;;;34.32;61.00;98560.66;5329265;26;20074;-93
2023/08/28 09:45:59;;;;;;;1.83;1.48;;;;;;;34.55;61.01;98554.53;5329002;26;20074;-94
2023/08/28 09:48:24;;;;;;;0.93;0.93;;;;;;;34.71;61.02;98545.72;5329192;26;20437;-94
2023/08/28 09:50:51;;;;;;;1.02;1.02;;;;;;;34.83;61.02;98548.44;5328802;26;20076;-94
2023/08/28 09:53:29;;;;;;;1.52;1.42;;;;;;;34.85;61.02;98540.94;5329302;26;20052;-95
2023/08/28 09:55:54;;;;;;;0.88;0.80;;;;;;;34.84;61.02;98544.66;5347484;26;20058;-94
2023/08/28 09:58:24;;;;;;;1.55;1.45;;;;;;;34.94;61.03;98540.34;5329018;26;20076;-93
2023/08/28 10:00:50;;;;;;;0.70;0.70;;;;;;;35.14;61.04;98528.34;5329310;26;20169;-93
2023/08/28 10:03:15;;;;;;;9.32;1.58;;;;;;;35.33;61.05;98527.12;5329977;26;20096;-94
2023/08/28 10:05:44;;;;;;;2.83;2.05;;;;;;;35.52;61.06;98514.31;5329881;26;20108;-94
2023/08/28 10:08:14;;;;;;;5.50;1.90;;;;;;;35.67;61.07;98517.28;5330894;26;20060;-95
2023/08/28 10:10:47;;;;;;;4.05;1.60;;;;;;;35.74;61.07;98501.75;5349156;26;20078;-94
2023/08/28 10:13:19;;;;;;;1.67;1.27;;;;;;;35.52;61.06;98498.87;5330832;26;20070;-94
2023/08/28 10:16:05;;;;;;;1.55;1.33;;;;;;;35.63;61.07;98506.13;5331483;26;20056;-95
2023/08/28 10:18:44;;;;;;;2.08;1.98;;;;;;;35.67;61.07;98503.75;5366060;26;20128;-94
2023/08/28 10:21:10;;;;;;;0.62;0.62;;;;;;;35.68;61.06;98497.28;5348157;26;20129;-93
2023/08/28 10:23:38;;;;;;;1.08;0.98;;;;;;;35.79;61.07;98498.31;5329708;26;20048;-93
2023/08/28 10:26:04;;;;;;;0.80;0.47;;;;;;;35.95;61.08;98497.53;5329894;26;20062;-93
2023/08/28 10:28:34;;;;;;;1.62;0.70;;;;;;;36.15;61.08;98491.66;5329712;26;20056;-93
2023/08/28 10:30:59;;;;;;;2.42;1.65;;;;;;;36.27;61.09;98492.44;5331108;26;20060;-94
2023/08/28 10:33:25;;;;;;;1.35;1.05;;;;;;;36.45;61.10;98492.22;5329873;26;20091;-94
2023/08/28 10:35:54;;;;;;;1.42;1.33;;;;;;;36.61;61.11;98476.19;5348231;26;20051;-94
2023/08/28 10:38:25;;;;;;;1.17;1.00;;;;;;;36.69;61.11;98473.88;5330745;26;20704;-94
2023/08/28 10:40:52;;;;;;;0.98;0.93;;;;;;;36.80;61.13;98485.72;5331071;26;20067;-93
2023/08/28 10:43:19;;;;;;;2.20;1.45;;;;;;;36.98;61.13;98468.34;5329782;26;20086;-94
2023/08/28 10:45:57;;;;;;;1.58;0.98;;;;;;;36.98;61.13;98473.78;5330131;26;20059;-94
2023/08/28 10:48:23;;;;;;;1.45;1.37;;;;;;;36.88;61.13;98464.41;5331171;26;20112;-94
2023/08/28 10:50:57;;;;;;;1.17;0.75;;;;;;;37.08;61.13;98469.28;5330067;26;20064;-94
2023/08/28 10:53:22;;;;;;;1.60;1.10;;;;;;;37.28;61.15;98478.78;5330745;26;20098;-95
2023/08/28 10:55:59;;;;;;;1.17;1.08;;;;;;;37.34;61.14;98475.88;5329761;26;20376;-94
2023/08/28 10:58:25;;;;;;;1.35;1.20;;;;;;;37.49;61.15;98459.78;5349636;26;20119;-93
2023/08/28 11:01:20;;;;;;;0.90;0.68;;;;;;;37.57;61.16;98468.53;5329986;26;20064;-94
2023/08/28 11:03:58;;;;;;;6.68;1.75;;;;;;;37.65;61.16;98457.25;5331675;26;20053;-95
2023/08/28 11:06:39;;;;;;;1.33;1.23;;;;;;;37.70;61.17;98458.09;5330500;26;20126;-94
2023/08/28 11:09:27;;;;;;;0.85;0.60;;;;;;;37.79;61.17;98461.22;5348497;26;20060;-94
2023/08/28 11:12:20;;;;;;;;;;;;;;;;;;;;;
2023/08/28 11:15:11;;;;;;;1.95;1.50;;;;;;;37.78;61.17;98451.41;5366109;26;35771;-93
2023/08/28 11:17:37;;;;;;;2.25;1.10;;;;;;;37.87;61.17;98449.06;5367226;26;20058;-94
2023/08/28 11:20:02;;;;;;;2.95;0.90;;;;;;;37.98;61.18;98454.34;5330099;26;20060;-94
2023/08/28 11:22:29;;;;;;;2.12;1.12;;;;;;;38.00;61.17;98444.03;5329812;26;20078;-94
2023/08/28 11:24:55;;;;;;;0.75;0.75;;;;;;;38.05;61.18;98441.34;5329842;26;20060;-93
2023/08/28 11:27:46;;;;;;;0.80;0.77;;;;;;;37.94;61.18;98433.38;5329858;26;20349;-93
2023/08/28 11:30:12;;;;;;;1.62;0.75;;;;;;;38.02;61.19;98441.03;5348357;26;20121;-94
2023/08/28 11:32:39;;;;;;;1.37;0.90;;;;;;;37.87;61.18;98444.47;5348037;26;20138;-95
2023/08/28 11:35:13;;;;;;;1.02;1.00;;;;;;;37.93;61.17;98442.59;5329751;26;20070;-94
2023/08/28 11:37:45;;;;;;;0.85;0.85;;;;;;;38.02;61.18;98441.88;5332185;26;20703;-94
2023/08/28 11:40:15;;;;;;;0.95;0.95;;;;;;;38.07;61.18;98430.22;5348205;26;20057;-94
2023/08/28 11:42:42;;;;;;;0.32;0.32;;;;;;;38.05;61.18;98424.22;5330796;26;20117;-94
2023/08/28 11:45:08;;;;;;;0.40;0.40;;;;;;;38.25;61.20;98421.69;5329659;26;20048;-93
2023/08/28 11:47:34;;;;;;;5.25;2.37;;;;;;;38.37;61.20;98413.38;5329492;26;20040;-93
2023/08/28 11:49:59;;;;;;;1.55;1.45;;;;;;;38.35;61.20;98421.78;5329944;26;20059;-93
2023/08/28 11:52:25;;;;;;;1.20;1.10;;;;;;;38.43;61.20;98416.94;5347939;26;20408;-93
2023/08/28 11:54:58;;;;;;;0.95;0.95;;;;;;;38.30;61.19;98421.72;5348211;26;20052;-95
2023/08/28 11:57:26;;;;;;;2.28;1.77;;;;;;;38.39;61.20;98422.91;5349362;26;20067;-94
2023/08/28 11:59:56;;;;;;;1.25;1.15;;;;;;;38.44;61.20;98413.13;5330112;26;20063;-94
2023/08/28 12:02:23;;;;;;;1.08;0.98;;;;;;;38.34;61.20;98416.63;5329895;26;20121;-94
2023/08/28 12:04:49;;;;;;;1.17;1.12;;;;;;;38.41;61.20;98413.66;5329791;26;20039;-94
2023/08/28 12:07:22;;;;;;;3.08;1.62;;;;;;;38.48;61.20;98412.34;5329506;26;20060;-93
2023/08/28 12:09:48;;;;;;;1.17;1.05;;;;;;;38.56;61.20;98408.31;5330032;26;20080;-93
2023/08/28 12:12:14;;;;;;;4.25;1.08;;;;;;;38.59;61.21;98408.63;5329571;26;20443;-94
2023/08/28 12:14:44;;;;;;;1.10;1.00;;;;;;;38.60;61.22;98401.28;5329722;26;20107;-94
2023/08/28 12:17:16;;;;;;;1.05;0.93;;;;;;;38.55;61.21;98390.34;5329508;26;20728;-94
2023/08/28 12:19:42;;;;;;;0.75;0.75;;;;;;;38.40;61.20;98385.66;5329743;26;20072;-93
2023/08/28 12:22:11;;;;;;;0.68;0.65;;;;;;;38.31;61.19;98379.88;5328999;26;20056;-94
2023/08/28 12:24:42;;;;;;;2.15;1.12;;;;;;;38.35;61.21;98366.59;5329632;26;20115;-93
2023/08/28 12:27:09;;;;;;;0.70;0.52;;;;;;;38.53;61.21;98359.88;5329784;26;20107;-94
2023/08/28 12:29:37;;;;;;;0.93;0.45;;;;;;;38.77;61.22;98357.59;5329642;26;20499;-94
2023/08/28 12:32:06;;;;;;;0.60;0.60;;;;;;;38.77;61.22;98349.44;5329860;26;20704;-94
2023/08/28 12:34:34;;;;;;;2.45;1.98;;;;;;;38.89;61.22;98353.56;5330206;26;20741;-93
2023/08/28 12:37:04;;;;;;;0.88;0.75;;;;;;;38.92;61.23;98355.75;5330149;26;20051;-94
2023/08/28 12:39:30;;;;;;;0.50;0.50;;;;;;;39.00;61.23;98347.06;5329455;26;20095;-94
2023/08/28 12:41:56;;;;;;;1.02;0.95;;;;;;;39.16;61.24;98347.97;5329412;26;20060;-93
2023/08/28 12:44:27;;;;;;;4.12;0.93;;;;;;;39.14;61.23;98344.69;5329327;26;20104;-94
2023/08/28 12:46:55;;;;;;;1.23;1.10;;;;;;;39.34;61.25;98337.66;5329944;26;20083;-94
2023/08/28 12:49:21;;;;;;;0.90;0.85;;;;;;;39.22;61.24;98325.13;5329559;26;20125;-94
2023/08/28 12:51:47;;;;;;;0.60;0.60;;;;;;;39.21;61.24;98323.47;5329331;26;20063;-94
2023/08/28 12:54:24;;;;;;;0.50;0.50;;;;;;;39.16;61.24;98326.19;5329252;26;20115;-94
2023/08/28 12:56:50;;;;;;;2.25;1.08;;;;;;;39.16;61.24;98323.47;5332926;26;20059;-94
2023/08/28 12:59:25;;;;;;;3.50;2.03;;;;;;;39.30;61.24;98312.91;5329599;26;20060;-94
2023/08/28 13:01:51;;;;;;;1.85;0.60;;;;;;;39.17;61.25;98316.13;5330526;26;20067;-94
2023/08/28 13:04:17;;;;;;;0.60;0.60;;;;;;;39.13;61.23;98309.59;5328931;26;20052;-94
2023/08/28 13:06:47;;;;;;;1.37;0.90;;;;;;;39.23;61.25;98315.84;5329535;26;20652;-95
2023/08/28 13:09:15;;;;;;;1.27;1.17;;;;;;;39.34;61.25;98307.72;5329969;26;20066;-94
2023/08/28 13:11:40;;;;;;;0.95;0.95;;;;;;;39.21;61.24;98312.59;5329624;26;20412;-94
2023/08/28 13:14:09;;;;;;;2.03;1.48;;;;;;;39.28;61.24;98298.75;5329367;26;20070;-94
2023/08/28 13:16:38;;;;;;;0.73;0.73;;;;;;;39.14;61.23;98309.31;5329919;26;20101;-95
2023/08/28 13:19:04;;;;;;;0.95;0.95;;;;;;;39.09;61.24;98298.44;5328384;26;20063;-94
2023/08/28 13:21:36;;;;;;;1.00;0.93;;;;;;;39.22;61.24;98287.00;5347608;26;20447;-94
2023/08/28 13:24:01;;;;;;;0.52;0.52;;;;;;;39.12;61.24;98281.56;5330982;26;20020;-94
2023/08/28 13:26:27;;;;;;;2.20;0.90;;;;;;;39.16;61.24;98271.75;5329036;26;20103;-94
2023/08/28 13:28:52;;;;;;;0.65;0.65;;;;;;;39.20;61.24;98259.25;5328960;26;20069;-93
2023/08/28 13:31:18;;;;;;;1.25;0.77;;;;;;;39.19;61.24;98260.34;5329092;26;20336;-94
2023/08/28 13:33:48;;;;;;;1.45;1.35;;;;;;;39.11;61.24;98258.16;5347799;26;20110;-93
2023/08/28 13:36:21;;;;;;;0.25;0.25;;;;;;;39.19;61.24;98249.44;5329929;26;20067;-94
2023/08/28 13:38:49;;;;;;;2.47;2.03;;;;;;;39.19;61.24;98249.44;5349547;26;20125;-94
2023/08/28 13:41:15;;;;;;;0.85;0.85;;;;;;;39.11;61.24;98243.72;5330013;26;20115;-94
2023/08/28 13:43:43;;;;;;;2.03;1.05;;;;;;;38.95;61.23;98242.84;5329952;26;20049;-94
2023/08/28 13:46:11;;;;;;;0.70;0.67;;;;;;;38.87;61.23;98246.09;5329875;26;20067;-94
2023/08/28 13:48:37;;;;;;;2.30;1.62;;;;;;;38.85;61.23;98242.84;5330428;26;20064;-94
2023/08/28 13:51:03;;;;;;;1.45;1.00;;;;;;;38.64;61.21;98240.06;5329941;26;20056;-93
2023/08/28 13:53:31;;;;;;;0.90;0.90;;;;;;;38.80;61.22;98245.53;5330160;26;20101;-94
2023/08/28 13:55:59;;;;;;;0.70;0.70;;;;;;;38.81;61.22;98231.69;5330645;26;20070;-94
2023/08/28 13:58:25;;;;;;;1.67;1.08;;;;;;;38.81;61.22;98228.16;5348685;26;20130;-94
2023/08/28 14:01:02;;;;;;;1.05;0.90;;;;;;;38.84;61.23;98231.16;5329992;26;20060;-94
2023/08/28 14:03:31;;;;;;;1.30;1.20;;;;;;;38.62;61.22;98228.62;5330383;26;20058;-94
2023/08/28 14:06:03;;;;;;;2.30;0.98;;;;;;;38.71;61.22;98225.37;5330511;26;20071;-94
2023/08/28 14:08:34;;;;;;;13.10;0.98;;;;;;;38.80;61.23;98226.50;5330501;26;20096;-94
2023/08/28 14:11:09;;;;;;;2.65;1.30;;;;;;;38.86;61.23;98225.44;5330961;26;20069;-93
2023/08/28 14:13:35;;;;;;;0.68;0.60;;;;;;;38.72;61.22;98222.41;5330077;26;20748;-94
2023/08/28 14:16:00;;;;;;;1.62;0.73;;;;;;;38.76;61.23;98230.84;5348704;26;20044;-94
2023/08/28 14:18:29;;;;;;;2.00;1.80;;;;;;;38.78;61.23;98220.50;5329811;26;20064;-94
2023/08/28 14:20:55;;;;;;;0.25;0.25;;;;;;;38.77;61.23;98218.88;5330095;26;20083;-94
2023/08/28 14:23:30;;;;;;;1.55;1.23;;;;;;;38.71;61.22;98220.75;5329859;26;20400;-94
2023/08/28 14:26:02;;;;;;;2.10;1.67;;;;;;;38.85;61.24;98221.09;5330930;26;20063;-93
2023/08/28 14:28:28;;;;;;;13.40;1.25;;;;;;;38.73;61.22;98215.88;5330757;26;20080;-94
2023/08/28 14:30:53;;;;;;;1.12;0.68;;;;;;;38.77;61.23;98218.88;5329971;26;20099;-94
2023/08/28 14:33:26;;;;;;;1.85;1.70;;;;;;;38.78;61.23;98209.63;5330002;26;20048;-93
2023/08/28 14:35:52;;;;;;;1.42;1.25;;;;;;;38.87;61.23;98200.69;5331040;26;20049;-94
2023/08/28 14:38:17;;;;;;;1.10;1.00;;;;;;;38.86;61.23;98204.47;5329825;26;20061;-93
2023/08/28 14:40:45;;;;;;;0.60;0.60;;;;;;;38.74;61.23;98198.47;5330020;26;20713;-93
2023/08/28 14:43:11;;;;;;;0.82;0.47;;;;;;;38.74;61.24;98203.91;5329962;26;20066;-94
2023/08/28 14:45:36;;;;;;;0.37;0.37;;;;;;;38.88;61.23;98202.31;5329685;26;20048;-93
2023/08/28 14:48:03;;;;;;;0.57;0.57;;;;;;;38.80;61.23;98204.72;5329734;26;20110;-94
2023/08/28 14:50:28;;;;;;;0.20;0.20;;;;;;;38.74;61.23;98206.62;5348527;26;20113;-94
2023/08/28 14:52:56;;;;;;;0.55;0.55;;;;;;;38.73;61.22;98198.75;5329870;26;20389;-94
2023/08/28 14:55:22;;;;;;;8.40;3.03;;;;;;;38.89;61.22;98195.78;5330018;26;20534;-94
2023/08/28 14:57:48;;;;;;;0.35;0.35;;;;;;;38.89;61.22;98190.34;5329724;26;20105;-94
2023/08/28 15:00:15;;;;;;;0.35;0.30;;;;;;;38.81;61.22;98193.59;5330177;26;20072;-93
2023/08/28 15:02:41;;;;;;;2.08;0.82;;;;;;;38.92;61.24;98191.69;5330034;26;20482;-93
2023/08/28 15:05:08;;;;;;;0.52;0.50;;;;;;;38.95;61.23;98183.00;5329632;26;20119;-92
2023/08/28 15:07:33;;;;;;;1.10;0.82;;;;;;;38.91;61.24;98188.16;5329853;26;20071;-94
2023/08/28 15:09:59;;;;;;;4.85;0.75;;;;;;;38.85;61.24;98183.81;5348356;26;20064;-94
2023/08/28 15:12:28;;;;;;;6.57;0.93;;;;;;;38.78;61.23;98176.97;5329817;26;20078;-95
2023/08/28 15:14:58;;;;;;;0.85;0.85;;;;;;;38.74;61.22;98170.44;5330690;26;20048;-94
2023/08/28 15:17:23;;;;;;;0.80;0.37;;;;;;;38.63;61.22;98170.44;5330974;26;20126;-94
2023/08/28 15:19:52;;;;;;;0.75;0.75;;;;;;;38.82;61.22;98172.66;5329754;26;20128;-93
2023/08/28 15:22:17;;;;;;;1.50;1.02;;;;;;;38.59;61.22;98177.47;5330333;26;20060;-94
2023/08/28 15:24:43;;;;;;;2.20;1.40;;;;;;;38.57;61.21;98178.84;5329546;26;20078;-92
2023/08/28 15:27:09;;;;;;;0.65;0.65;;;;;;;38.64;61.22;98177.53;5348261;26;20084;-93
2023/08/28 15:29:36;;;;;;;0.47;0.47;;;;;;;38.65;61.22;98178.34;5329960;26;20364;-94
2023/08/28 15:32:01;;;;;;;0.82;0.80;;;;;;;38.68;61.23;98170.44;5330142;26;20066;-94
2023/08/28 15:34:27;;;;;;;0.90;0.85;;;;;;;38.55;61.21;98179.06;5329779;26;20056;-93
2023/08/28 15:36:52;;;;;;;0.77;0.77;;;;;;;38.52;61.22;98168.75;5329779;26;20068;-93
2023/08/28 15:39:18;;;;;;;0.40;0.40;;;;;;;38.40;61.22;98176.34;5329671;26;20086;-93
2023/08/28 15:41:44;;;;;;;1.05;0.60;;;;;;;38.56;61.21;98167.13;5329894;26;20088;-93
2023/08/28 15:44:13;;;;;;;3.10;0.52;;;;;;;38.46;61.21;98164.37;5329740;26;20054;-94
2023/08/28 15:46:39;;;;;;;0.65;0.50;;;;;;;38.36;61.21;98167.09;5329703;26;20166;-93
2023/08/28 15:49:05;;;;;;;2.83;1.55;;;;;;;38.23;61.20;98159.41;5329669;26;20068;-93
2023/08/28 15:51:30;;;;;;;4.80;0.65;;;;;;;38.21;61.20;98158.88;5329636;26;20100;-94
2023/08/28 15:53:56;;;;;;;1.65;1.27;;;;;;;38.11;61.20;98158.81;5329433;26;20087;-93
2023/08/28 15:56:23;;;;;;;1.00;0.90;;;;;;;38.06;61.19;98156.87;5329465;26;20071;-93
2023/08/28 15:58:51;;;;;;;0.80;0.80;;;;;;;38.11;61.19;98153.38;5329602;26;20126;-93
2023/08/28 16:01:17;;;;;;;7.60;3.05;;;;;;;37.96;61.20;98162.28;5330460;26;20055;-93
2023/08/28 16:03:46;;;;;;;17.48;1.23;;;;;;;37.96;61.19;98165.81;5329457;26;20101;-92
2023/08/28 16:06:11;;;;;;;1.12;0.68;;;;;;;37.90;61.19;98164.16;5329717;26;20056;-94
2023/08/28 16:08:37;;;;;;;0.68;0.68;;;;;;;37.93;61.19;98170.97;5329490;26;20063;-93
2023/08/28 16:11:03;;;;;;;1.08;0.73;;;;;;;37.77;61.19;98172.75;5329558;26;20056;-94
2023/08/28 16:13:29;;;;;;;4.05;1.17;;;;;;;37.94;61.19;98170.69;5329674;26;20063;-93
2023/08/28 16:15:55;;;;;;;15.45;1.40;;;;;;;37.90;61.18;98175.03;5329671;26;20333;-93
2023/08/28 16:18:21;;;;;;;0.88;0.88;;;;;;;37.78;61.19;98168.97;5329533;26;20028;-94
2023/08/28 16:20:47;;;;;;;6.95;0.65;;;;;;;37.79;61.18;98165.16;5347976;26;20419;-93
2023/08/28 16:23:12;;;;;;;1.35;1.10;;;;;;;37.67;61.17;98161.81;5329328;26;20052;-93
2023/08/28 16:25:39;;;;;;;0.85;0.82;;;;;;;37.72;61.18;98164.59;5329429;26;20056;-93
2023/08/28 16:28:06;;;;;;;2.90;2.08;;;;;;;37.55;61.17;98161.19;5329567;26;20078;-92
2023/08/28 16:30:32;;;;;;;0.15;0.15;;;;;;;37.48;61.17;98158.72;5329312;26;20119;-93
2023/08/28 16:32:58;;;;;;;0.93;0.93;;;;;;;37.40;61.16;98156.50;5329710;26;20054;-94
2023/08/28 16:35:24;;;;;;;1.37;1.02;;;;;;;37.38;61.17;98147.78;5329582;26;20094;-94
2023/08/28 16:37:52;;;;;;;1.52;0.98;;;;;;;37.26;61.16;98149.87;5329369;26;20052;-93
2023/08/28 16:40:18;;;;;;;0.93;0.93;;;;;;;37.18;61.16;98151.97;5329830;26;20418;-93
2023/08/28 16:42:45;;;;;;;1.05;1.02;;;;;;;37.12;61.15;98146.75;5329432;26;20067;-93
2023/08/28 16:45:11;;;;;;;0.50;0.50;;;;;;;37.04;61.15;98145.34;5329476;26;20059;-93
2023/08/28 16:47:39;;;;;;;1.17;1.08;;;;;;;36.88;61.14;98143.56;5347922;26;20096;-93
2023/08/28 16:50:05;;;;;;;0.77;0.53;;;;;;;36.69;61.13;98148.53;5330489;26;20052;-93
2023/08/28 16:52:31;;;;;;;0.52;0.52;;;;;;;36.59;61.12;98138.38;5329433;26;20151;-93
2023/08/28 16:54:56;;;;;;;1.27;1.20;;;;;;;36.48;61.12;98136.66;5329338;26;20084;-93
2023/08/28 16:57:22;;;;;;;0.60;0.60;;;;;;;36.38;61.12;98133.81;5347739;26;20313;-93
2023/08/28 16:59:48;;;;;;;0.88;0.88;;;;;;;36.45;61.11;98128.22;5329548;26;20044;-93
2023/08/28 17:02:16;;;;;;;0.65;0.62;;;;;;;36.33;61.11;98136.50;5329383;26;20107;-93
2023/08/28 17:04:42;;;;;;;3.03;0.93;;;;;;;36.36;61.11;98135.16;5347617;26;20415;-93
2023/08/28 17:07:08;;;;;;;2.25;0.93;;;;;;;36.32;61.11;98139.44;5329295;26;20082;-93
2023/08/28 17:09:34;;;;;;;2.85;1.02;;;;;;;36.14;61.10;98133.25;5329355;26;20083;-93
2023/08/28 17:11:59;;;;;;;0.57;0.47;;;;;;;36.08;61.10;98128.84;5330214;26;20048;-93
2023/08/28 17:14:25;;;;;;;0.68;0.68;;;;;;;35.93;61.09;98136.78;5330348;26;20123;-93
2023/08/28 17:16:51;;;;;;;0.65;0.35;;;;;;;35.84;61.09;98139.13;5330135;26;20070;-93
2023/08/28 17:19:17;;;;;;;1.75;1.12;;;;;;;35.67;61.09;98135.59;5330164;26;20071;-92
2023/08/28 17:21:43;;;;;;;1.48;0.70;;;;;;;35.44;61.07;98144.75;5329944;26;20079;-93
2023/08/28 17:24:08;;;;;;;1.05;0.82;;;;;;;35.19;61.06;98142.44;5330223;26;20053;-92
2023/08/28 17:26:34;;;;;;;0.80;0.70;;;;;;;34.99;61.05;98136.72;5330140;26;20061;-93
2023/08/28 17:29:01;;;;;;;1.80;1.17;;;;;;;34.60;61.02;98133.87;5348567;26;20405;-93
2023/08/28 17:31:31;;;;;;;0.80;0.32;;;;;;;34.50;61.02;98138.25;5330619;26;20064;-93
2023/08/28 17:33:57;;;;;;;0.25;0.25;;;;;;;34.26;61.01;98135.63;5331147;26;20076;-93
2023/08/28 17:36:23;;;;;;;2.25;1.15;;;;;;;34.54;61.03;98139.41;5330119;26;20077;-93
2023/08/28 17:38:57;;;;;;;3.40;1.20;;;;;;;34.30;61.02;98142.16;5330311;26;20048;-92
2023/08/28 17:41:23;;;;;;;2.30;1.27;;;;;;;34.27;61.01;98139.94;5330289;26;20048;-93
2023/08/28 17:43:48;;;;;;;0.68;0.52;;;;;;;33.80;60.99;98133.81;5329817;26;20161;-93
2023/08/28 17:46:15;;;;;;;0.40;0.35;;;;;;;33.73;60.99;98125.87;5329800;26;20108;-92
2023/08/28 17:48:40;;;;;;;2.53;1.67;;;;;;;33.39;60.98;98121.34;5330003;26;20052;-93
2023/08/28 17:51:08;;;;;;;5.95;1.30;;;;;;;33.26;60.97;98127.75;5329698;26;20093;-93
2023/08/28 17:53:34;;;;;;;0.90;0.90;;;;;;;33.18;60.96;98120.00;5348283;26;20068;-92
2023/08/28 17:55:59;;;;;;;17.00;1.02;;;;;;;33.08;60.96;98125.97;5329545;26;20109;-92
2023/08/28 17:58:25;;;;;;;3.05;1.15;;;;;;;32.89;60.95;98125.25;5329831;26;20060;-92
2023/08/28 18:00:52;;;;;;;2.28;1.20;;;;;;;32.61;60.93;98111.56;5329607;26;20062;-92
2023/08/28 18:03:18;;;;;;;2.65;1.08;;;;;;;32.67;60.94;98111.47;5329912;26;20775;-92
2023/08/28 18:05:50;;;;;;;2.85;0.50;;;;;;;32.73;60.94;98106.22;5329603;26;20097;-92
2023/08/28 18:08:16;;;;;;;2.25;1.42;;;;;;;32.50;60.92;98107.78;5330042;26;20035;-93
2023/08/28 18:10:43;;;;;;;0.30;0.30;;;;;;;32.39;60.92;98103.16;5330075;26;20068;-92
2023/08/28 18:13:09;;;;;;;3.10;0.82;;;;;;;32.18;60.90;98095.56;5348605;26;20150;-92
2023/08/28 18:15:38;;;;;;;1.12;0.77;;;;;;;32.06;60.91;98093.66;5330780;26;20084;-91
2023/08/28 18:18:05;;;;;;;0.40;0.40;;;;;;;32.07;60.91;98102.53;5349276;26;20435;-92
2023/08/28 18:20:30;;;;;;;1.30;1.20;;;;;;;31.97;60.90;98094.19;5330287;26;20060;-90
2023/08/28 18:22:56;;;;;;;0.50;0.45;;;;;;;31.67;60.88;98102.16;5329485;26;20123;-92
2023/08/28 18:25:24;;;;;;;2.17;1.85;;;;;;;31.68;60.88;98101.94;5330143;26;20035;-92
2023/08/28 18:27:51;;;;;;;1.40;0.85;;;;;;;31.59;60.88;98094.41;5330834;26;20111;-93
2023/08/28 18:30:17;;;;;;;1.12;1.02;;;;;;;31.52;60.87;98094.47;5330439;26;20086;-92
2023/08/28 18:32:43;;;;;;;1.50;1.40;;;;;;;31.47;60.88;98091.62;5330279;26;20329;-93
2023/08/28 18:35:09;;;;;;;2.25;1.35;;;;;;;31.46;60.88;98088.09;5329927;26;20530;-92
2023/08/28 18:37:35;;;;;;;0.55;0.52;;;;;;;31.36;60.87;98082.44;5330243;26;20051;-92
2023/08/28 18:40:01;;;;;;;0.52;0.45;;;;;;;31.38;60.87;98084.88;5330614;26;20459;-91
2023/08/28 18:42:27;;;;;;;0.62;0.52;;;;;;;31.38;60.88;98085.72;5329981;26;20692;-93
2023/08/28 18:44:53;;;;;;;0.37;0.37;;;;;;;31.29;60.86;98088.94;5330182;26;20062;-90
2023/08/28 18:47:19;;;;;;;1.15;1.00;;;;;;;31.31;60.87;98093.03;5330001;26;20066;-91
2023/08/28 18:49:45;;;;;;;0.47;0.25;;;;;;;31.11;60.85;98089.69;5330285;26;20044;-92
2023/08/28 18:52:11;;;;;;;4.87;0.98;;;;;;;31.17;60.86;98091.50;5329812;26;20089;-92
2023/08/28 18:54:37;;;;;;;2.15;1.95;;;;;;;31.20;60.85;98091.06;5348695;26;20059;-92
2023/08/28 18:57:04;;;;;;;0.62;0.62;;;;;;;31.25;60.86;98096.63;5330090;26;20324;-90
2023/08/28 18:59:30;;;;;;;1.12;0.55;;;;;;;31.12;60.85;98100.19;5331037;26;20052;-92
2023/08/28 19:01:56;;;;;;;3.35;1.65;;;;;;;31.12;60.85;98107.44;5330008;26;20446;-91
2023/08/28 19:04:22;;;;;;;0.25;0.25;;;;;;;31.14;60.85;98099.97;5329670;26;20060;-90